Big Torch Key, Florida
Current Conditions -  °F | °C
As of 1:53 AM on Saturday 20 Dec 2014 (Local Time) from KNQX Reporting Station
Clear Clear  
Wind Chill: 68°   Ceiling: Unl
Heat Index: 68°   Visibility: 10mi
Dew Point: 64°   Wind: 6mph
Humidity: 87%   Direction: 50°NE
Pressure: 30.02"   Gusts: NA
Location:  24.6465°N, 81.5399°W
Report Text: KNQX 200653Z AUTO 05005KT 10SM CLR 20/18 A3002 RMK AO2 SLP165 T02000178
Loading
Personal Weather Stations






























Interactive Weather Map New forecast layout! Learn more

10-Day Weather Forecast

Advertisements
Track Severe Weather on mobile